Time,TemperatureF,DewpointF,PressureIn,WindDirection,WindDirectionDegrees,WindSpeedMPH,WindSpeedGustMPH,Humidity,HourlyPrecipIn,Conditions,Clouds,dailyrainin,SoftwareType,DateUTC
2013-03-27 00:02:00,36.0,13.0,-100.00,SSW,195,6.0,8.0,38,-99.99,,,0.00,,2013-03-27 06:02:00,
2013-03-27 00:12:00,36.0,14.0,-100.00,SSW,205,7.0,11.0,40,-99.99,,,0.00,,2013-03-27 06:12:00,
2013-03-27 00:22:00,36.0,14.0,-100.00,SSW,205,7.0,11.0,40,-99.99,,,0.00,,2013-03-27 06:22:00,
2013-03-27 00:32:00,36.0,14.0,-100.00,SSW,205,7.0,11.0,40,-99.99,,,0.00,,2013-03-27 06:32:00,
2013-03-27 00:42:00,36.0,14.0,-100.00,SSW,205,7.0,11.0,40,-99.99,,,0.00,,2013-03-27 06:42:00,
2013-03-27 00:52:00,35.0,14.0,-100.00,SSW,205,6.0,11.0,42,-99.99,,,0.00,,2013-03-27 06:52:00,
2013-03-27 01:02:00,35.0,14.0,-100.00,SSW,205,6.0,11.0,42,-99.99,,,0.00,,2013-03-27 07:02:00,
2013-03-27 01:12:00,34.0,14.0,-100.00,SSW,210,4.0,9.0,42,-99.99,,,0.00,,2013-03-27 07:12:00,
2013-03-27 01:22:00,34.0,14.0,-100.00,SSW,210,4.0,9.0,42,-99.99,,,0.00,,2013-03-27 07:22:00,
2013-03-27 01:32:00,34.0,14.0,-100.00,SSW,210,4.0,9.0,42,-99.99,,,0.00,,2013-03-27 07:32:00,
2013-03-27 01:42:00,34.0,14.0,-100.00,SSW,210,4.0,9.0,42,-99.99,,,0.00,,2013-03-27 07:42:00,
2013-03-27 01:53:00,34.0,14.0,-100.00,SSW,205,6.0,8.0,43,-99.99,,,0.00,,2013-03-27 07:53:00,
2013-03-27 02:02:00,34.0,14.0,-100.00,SSW,205,6.0,8.0,43,-99.99,,,0.00,,2013-03-27 08:02:00,
2013-03-27 02:12:00,34.0,13.0,-100.00,SW,225,6.0,8.0,42,-99.99,,,0.00,,2013-03-27 08:12:00,
2013-03-27 02:22:00,34.0,13.0,-100.00,SW,225,6.0,8.0,42,-99.99,,,0.00,,2013-03-27 08:22:00,
2013-03-27 02:32:00,34.0,13.0,-100.00,SW,225,6.0,8.0,42,-99.99,,,0.00,,2013-03-27 08:32:00,
2013-03-27 02:43:00,34.0,13.0,-100.00,SW,225,6.0,8.0,42,-99.99,,,0.00,,2013-03-27 08:43:00,
2013-03-27 02:52:00,34.0,14.0,-100.00,SW,225,6.0,9.0,42,-99.99,,,0.00,,2013-03-27 08:52:00,
2013-03-27 03:01:00,34.0,14.0,-100.00,SW,225,6.0,9.0,42,-99.99,,,0.00,,2013-03-27 09:01:00,
2013-03-27 03:12:00,34.0,13.0,-100.00,SSW,195,4.0,8.0,41,-99.99,,,0.00,,2013-03-27 09:12:00,
2013-03-27 03:22:00,34.0,13.0,-100.00,SSW,195,4.0,8.0,41,-99.99,,,0.00,,2013-03-27 09:22:00,
2013-03-27 03:32:00,34.0,13.0,-100.00,SSW,195,4.0,8.0,41,-99.99,,,0.00,,2013-03-27 09:32:00,
2013-03-27 03:42:00,34.0,13.0,-100.00,SSW,195,4.0,8.0,41,-99.99,,,0.00,,2013-03-27 09:42:00,
2013-03-27 03:52:00,33.0,13.0,-100.00,SW,220,3.0,7.0,43,-99.99,,,0.00,,2013-03-27 09:52:00,
2013-03-27 04:02:00,33.0,13.0,-100.00,SW,220,3.0,7.0,43,-99.99,,,0.00,,2013-03-27 10:02:00,
2013-03-27 04:12:00,33.0,13.0,-100.00,WSW,255,1.0,3.0,43,-99.99,,,0.00,,2013-03-27 10:12:00,
2013-03-27 04:22:00,33.0,13.0,-100.00,WSW,255,1.0,3.0,43,-99.99,,,0.00,,2013-03-27 10:22:00,
2013-03-27 04:32:00,33.0,13.0,-100.00,WSW,255,1.0,3.0,43,-99.99,,,-99.99,,2013-03-27 10:32:00,
2013-03-27 04:42:00,33.0,13.0,-100.00,WSW,255,1.0,3.0,43,-99.99,,,-99.99,,2013-03-27 10:42:00,
2013-03-27 04:52:00,31.0,12.0,-100.00,NNW,335,3.0,4.0,46,-99.99,,,0.00,,2013-03-27 10:52:00,
2013-03-27 05:02:00,31.0,12.0,-100.00,NNW,335,3.0,4.0,46,-99.99,,,0.00,,2013-03-27 11:02:00,
2013-03-27 05:12:00,30.0,12.0,-100.00,NNW,340,1.0,3.0,46,-99.99,,,0.00,,2013-03-27 11:12:00,
2013-03-27 05:22:00,30.0,12.0,-100.00,NNW,340,1.0,3.0,46,-99.99,,,0.00,,2013-03-27 11:22:00,
2013-03-27 05:32:00,30.0,12.0,-100.00,NNW,340,1.0,3.0,46,-99.99,,,-99.99,,2013-03-27 11:32:00,
2013-03-27 05:42:00,30.0,12.0,-100.00,NNW,340,1.0,3.0,46,-99.99,,,-99.99,,2013-03-27 11:42:00,
2013-03-27 05:52:00,31.0,13.0,-100.00,North,355,3.0,4.0,47,-99.99,,,0.00,,2013-03-27 11:52:00,
2013-03-27 06:02:00,31.0,13.0,-100.00,North,355,3.0,4.0,47,-99.99,,,0.00,,2013-03-27 12:02:00,
2013-03-27 06:12:00,30.0,13.0,-100.00,NE,40,3.0,3.0,48,-99.99,,,0.00,,2013-03-27 12:12:00,
2013-03-27 06:22:00,30.0,13.0,-100.00,NE,40,3.0,3.0,48,-99.99,,,0.00,,2013-03-27 12:22:00,
2013-03-27 06:32:00,30.0,13.0,-100.00,NE,40,3.0,3.0,48,-99.99,,,0.00,,2013-03-27 12:32:00,
2013-03-27 06:42:00,30.0,13.0,-100.00,NE,40,3.0,3.0,48,-99.99,,,0.00,,2013-03-27 12:42:00,
2013-03-27 06:52:00,29.0,13.0,-100.00,North,-999,0.0,0.0,49,-99.99,,,0.00,,2013-03-27 12:52:00,
2013-03-27 07:02:00,29.0,13.0,-100.00,North,-999,0.0,0.0,49,-99.99,,,0.00,,2013-03-27 13:02:00,
2013-03-27 07:12:00,31.0,14.0,-100.00,North,-999,0.0,0.0,48,-99.99,,,0.00,,2013-03-27 13:12:00,
2013-03-27 07:22:00,31.0,14.0,-100.00,North,-999,0.0,0.0,48,-99.99,,,0.00,,2013-03-27 13:22:00,
2013-03-27 07:32:00,31.0,14.0,-100.00,North,-999,0.0,0.0,48,-99.99,,,0.00,,2013-03-27 13:32:00,
2013-03-27 07:42:00,31.0,14.0,-100.00,North,-999,0.0,0.0,48,-99.99,,,0.00,,2013-03-27 13:42:00,
2013-03-27 07:52:00,31.0,13.0,-100.00,North,-999,0.0,0.0,48,-99.99,,,0.00,,2013-03-27 13:52:00,
2013-03-27 08:02:00,31.0,13.0,-100.00,North,-999,0.0,0.0,48,-99.99,,,0.00,,2013-03-27 14:02:00,
2013-03-27 08:11:00,32.0,14.0,-100.00,ESE,115,3.0,4.0,46,-99.99,,,0.00,,2013-03-27 14:11:00,
2013-03-27 08:22:00,32.0,14.0,-100.00,ESE,115,3.0,4.0,46,-99.99,,,0.00,,2013-03-27 14:22:00,
2013-03-27 08:32:00,32.0,14.0,-100.00,ESE,115,3.0,4.0,46,-99.99,,,0.00,,2013-03-27 14:32:00,
2013-03-27 08:42:00,32.0,14.0,-100.00,ESE,115,3.0,4.0,46,-99.99,,,0.00,,2013-03-27 14:42:00,
2013-03-27 08:52:00,35.0,17.0,-100.00,ESE,115,3.0,4.0,46,-99.99,,,0.00,,2013-03-27 14:52:00,
2013-03-27 09:02:00,35.0,17.0,-100.00,ESE,115,3.0,4.0,46,-99.99,,,0.00,,2013-03-27 15:02:00,
2013-03-27 09:11:00,37.0,16.0,-100.00,ESE,105,4.0,5.0,42,-99.99,,,0.00,,2013-03-27 15:11:00,
2013-03-27 09:22:00,37.0,16.0,-100.00,ESE,105,4.0,5.0,42,-99.99,,,0.00,,2013-03-27 15:22:00,
2013-03-27 09:32:00,37.0,16.0,-100.00,ESE,105,4.0,5.0,42,-99.99,,,0.00,,2013-03-27 15:32:00,
2013-03-27 09:42:00,37.0,16.0,-100.00,ESE,105,4.0,5.0,42,-99.99,,,0.00,,2013-03-27 15:42:00,
2013-03-27 09:52:00,40.0,17.0,-100.00,ENE,60,4.0,5.0,40,-99.99,,,0.00,,2013-03-27 15:52:00,
2013-03-27 10:02:00,40.0,17.0,-100.00,ENE,60,4.0,5.0,40,-99.99,,,0.00,,2013-03-27 16:02:00,
2013-03-27 10:12:00,41.0,18.0,-100.00,East,95,6.0,8.0,39,-99.99,,,0.00,,2013-03-27 16:12:00,
2013-03-27 10:22:00,41.0,18.0,-100.00,East,95,6.0,8.0,39,-99.99,,,0.00,,2013-03-27 16:22:00,
2013-03-27 10:32:00,41.0,18.0,-100.00,East,95,6.0,8.0,39,-99.99,,,0.00,,2013-03-27 16:32:00,
2013-03-27 10:42:00,41.0,18.0,-100.00,East,95,6.0,8.0,39,-99.99,,,0.00,,2013-03-27 16:42:00,
2013-03-27 10:52:00,43.0,18.0,-100.00,ENE,70,6.0,8.0,36,-99.99,,,0.00,,2013-03-27 16:52:00,
2013-03-27 11:02:00,43.0,18.0,-100.00,ENE,70,6.0,8.0,36,-99.99,,,0.00,,2013-03-27 17:02:00,
2013-03-27 11:12:00,45.0,19.0,-100.00,NE,40,7.0,9.0,35,-99.99,,,0.00,,2013-03-27 17:12:00,
2013-03-27 11:22:00,45.0,19.0,-100.00,NE,40,7.0,9.0,35,-99.99,,,0.00,,2013-03-27 17:22:00,
2013-03-27 11:32:00,45.0,19.0,-100.00,NE,40,7.0,9.0,35,-99.99,,,0.00,,2013-03-27 17:32:00,
2013-03-27 11:44:00,45.0,19.0,-100.00,NE,40,7.0,9.0,35,-99.99,,,0.00,,2013-03-27 17:44:00,
2013-03-27 11:52:00,47.0,19.0,-100.00,ENE,60,5.0,11.0,32,-99.99,,,0.00,,2013-03-27 17:52:00,
2013-03-27 12:02:00,47.0,19.0,-100.00,ENE,60,5.0,11.0,32,-99.99,,,0.00,,2013-03-27 18:02:00,
2013-03-27 12:12:00,48.0,17.0,-100.00,ENE,60,6.0,11.0,29,-99.99,,,0.00,,2013-03-27 18:12:00,
2013-03-27 12:22:00,48.0,17.0,-100.00,ENE,60,6.0,11.0,29,-99.99,,,0.00,,2013-03-27 18:22:00,
2013-03-27 12:32:00,48.0,17.0,-100.00,ENE,60,6.0,11.0,29,-99.99,,,0.00,,2013-03-27 18:32:00,
2013-03-27 12:42:00,48.0,17.0,-100.00,ENE,60,6.0,11.0,29,-99.99,,,0.00,,2013-03-27 18:42:00,
2013-03-27 12:52:00,50.0,17.0,-100.00,NNE,20,8.0,9.0,27,-99.99,,,0.00,,2013-03-27 18:52:00,
2013-03-27 13:02:00,50.0,17.0,-100.00,NNE,20,8.0,9.0,27,-99.99,,,0.00,,2013-03-27 19:02:00,
2013-03-27 13:12:00,51.0,16.0,-100.00,ENE,65,3.0,12.0,25,-99.99,,,0.00,,2013-03-27 19:12:00,
2013-03-27 13:21:00,51.0,16.0,-100.00,ENE,65,3.0,12.0,25,-99.99,,,0.00,,2013-03-27 19:21:00,
2013-03-27 13:32:00,51.0,16.0,-100.00,ENE,65,3.0,12.0,25,-99.99,,,0.00,,2013-03-27 19:32:00,
2013-03-27 13:42:00,51.0,16.0,-100.00,ENE,65,3.0,12.0,25,-99.99,,,0.00,,2013-03-27 19:42:00,
2013-03-27 13:52:00,52.0,17.0,-100.00,SSW,200,2.0,6.0,24,-99.99,,,0.00,,2013-03-27 19:52:00,
2013-03-27 14:02:00,52.0,17.0,-100.00,SSW,200,2.0,6.0,24,-99.99,,,0.00,,2013-03-27 20:02:00,
2013-03-27 14:12:00,52.0,15.0,-100.00,SSE,150,4.0,12.0,22,-99.99,,,0.00,,2013-03-27 20:12:00,
2013-03-27 14:22:00,52.0,15.0,-100.00,SSE,150,4.0,12.0,22,-99.99,,,0.00,,2013-03-27 20:22:00,
2013-03-27 14:32:00,52.0,15.0,-100.00,SSE,150,4.0,12.0,22,-99.99,,,0.00,,2013-03-27 20:32:00,
2013-03-27 14:42:00,52.0,15.0,-100.00,SSE,150,4.0,12.0,22,-99.99,,,0.00,,2013-03-27 20:42:00,
2013-03-27 14:52:00,53.0,16.0,-100.00,ENE,75,8.0,11.0,23,-99.99,,,0.00,,2013-03-27 20:52:00,
2013-03-27 15:02:00,53.0,16.0,-100.00,ENE,75,8.0,11.0,23,-99.99,,,0.00,,2013-03-27 21:02:00,
2013-03-27 15:12:00,55.0,17.0,-100.00,NE,35,6.0,14.0,22,-99.99,,,0.00,,2013-03-27 21:12:00,
2013-03-27 15:22:00,55.0,17.0,-100.00,NE,35,6.0,14.0,22,-99.99,,,0.00,,2013-03-27 21:22:00,
2013-03-27 15:32:00,55.0,17.0,-100.00,NE,35,6.0,14.0,22,-99.99,,,0.00,,2013-03-27 21:32:00,
2013-03-27 15:42:00,55.0,17.0,-100.00,NE,35,6.0,14.0,22,-99.99,,,0.00,,2013-03-27 21:42:00,
2013-03-27 15:52:00,54.0,15.0,-100.00,NE,35,4.0,7.0,21,-99.99,,,0.00,,2013-03-27 21:52:00,
2013-03-27 16:02:00,54.0,15.0,-100.00,NE,35,4.0,7.0,21,-99.99,,,0.00,,2013-03-27 22:02:00,
2013-03-27 16:12:00,57.0,15.0,-100.00,East,80,1.0,6.0,19,-99.99,,,0.00,,2013-03-27 22:12:00,
2013-03-27 16:23:00,57.0,15.0,-100.00,East,80,1.0,6.0,19,-99.99,,,0.00,,2013-03-27 22:23:00,
2013-03-27 16:32:00,57.0,15.0,-100.00,East,80,1.0,6.0,19,-99.99,,,0.00,,2013-03-27 22:32:00,
2013-03-27 16:42:00,57.0,15.0,-100.00,East,80,1.0,6.0,19,-99.99,,,0.00,,2013-03-27 22:42:00,
2013-03-27 16:52:00,57.0,15.0,-100.00,SSW,205,10.0,15.0,19,-99.99,,,0.00,,2013-03-27 22:52:00,
2013-03-27 17:02:00,57.0,15.0,-100.00,SSW,205,10.0,15.0,19,-99.99,,,0.00,,2013-03-27 23:02:00,
2013-03-27 17:12:00,55.0,14.0,-100.00,South,185,8.0,12.0,19,-99.99,,,0.00,,2013-03-27 23:12:00,
2013-03-27 17:22:00,55.0,14.0,-100.00,South,185,8.0,12.0,19,-99.99,,,0.00,,2013-03-27 23:22:00,
2013-03-27 17:32:00,55.0,14.0,-100.00,South,185,8.0,12.0,19,-99.99,,,0.00,,2013-03-27 23:32:00,
2013-03-27 17:42:00,55.0,14.0,-100.00,South,185,8.0,12.0,19,-99.99,,,0.00,,2013-03-27 23:42:00,
2013-03-27 17:52:00,53.0,12.0,-100.00,SW,225,6.0,15.0,19,-99.99,,,0.00,,2013-03-27 23:52:00,
2013-03-27 18:02:00,53.0,12.0,-100.00,SW,225,6.0,15.0,19,-99.99,,,0.00,,2013-03-28 00:02:00,
2013-03-27 18:12:00,50.0,12.0,-100.00,SW,215,8.0,14.0,21,-99.99,,,0.00,,2013-03-28 00:12:00,
2013-03-27 18:22:00,50.0,12.0,-100.00,SW,215,8.0,14.0,21,-99.99,,,0.00,,2013-03-28 00:22:00,
2013-03-27 18:32:00,50.0,12.0,-100.00,SW,215,8.0,14.0,21,-99.99,,,0.00,,2013-03-28 00:32:00,
2013-03-27 18:52:00,50.0,13.0,-100.00,WNW,290,4.0,8.0,22,-99.99,,,0.00,,2013-03-28 00:52:00,
2013-03-27 19:02:00,50.0,13.0,-100.00,WNW,290,4.0,8.0,22,-99.99,,,0.00,,2013-03-28 01:02:00,
2013-03-27 19:12:00,49.0,13.0,-100.00,NNW,330,4.0,9.0,23,-99.99,,,0.00,,2013-03-28 01:12:00,
2013-03-27 19:22:00,49.0,13.0,-100.00,NNW,330,4.0,9.0,23,-99.99,,,0.00,,2013-03-28 01:22:00,
2013-03-27 19:32:00,49.0,13.0,-100.00,NNW,330,4.0,9.0,23,-99.99,,,0.00,,2013-03-28 01:32:00,
2013-03-27 19:52:00,48.0,14.0,-100.00,NW,320,6.0,8.0,25,-99.99,,,0.00,,2013-03-28 01:52:00,
2013-03-27 20:02:00,48.0,14.0,-100.00,NW,320,6.0,8.0,25,-99.99,,,0.00,,2013-03-28 02:02:00,
2013-03-27 20:12:00,45.0,15.0,-100.00,SW,225,2.0,7.0,29,-99.99,,,0.00,,2013-03-28 02:12:00,
2013-03-27 20:22:00,45.0,15.0,-100.00,SW,225,2.0,7.0,29,-99.99,,,0.00,,2013-03-28 02:22:00,
2013-03-27 20:32:00,45.0,15.0,-100.00,SW,225,2.0,7.0,29,-99.99,,,0.00,,2013-03-28 02:32:00,
2013-03-27 20:42:00,45.0,15.0,-100.00,SW,225,2.0,7.0,29,-99.99,,,0.00,,2013-03-28 02:42:00,
2013-03-27 21:02:00,44.0,16.0,-100.00,SW,230,2.0,8.0,33,-99.99,,,0.00,,2013-03-28 03:02:00,
2013-03-27 21:12:00,43.0,18.0,-100.00,WSW,240,1.0,4.0,36,-99.99,,,0.00,,2013-03-28 03:12:00,
2013-03-27 21:22:00,43.0,18.0,-100.00,WSW,240,1.0,4.0,36,-99.99,,,0.00,,2013-03-28 03:22:00,
2013-03-27 21:33:00,43.0,18.0,-100.00,WSW,240,1.0,4.0,36,-99.99,,,0.00,,2013-03-28 03:33:00,
2013-03-27 21:52:00,43.0,18.0,-100.00,SSW,200,6.0,8.0,36,-99.99,,,0.00,,2013-03-28 03:52:00,
2013-03-27 22:02:00,43.0,18.0,-100.00,SSW,200,6.0,8.0,36,-99.99,,,0.00,,2013-03-28 04:02:00,
2013-03-27 22:12:00,42.0,18.0,-100.00,SSW,205,6.0,9.0,37,-99.99,,,0.00,,2013-03-28 04:12:00,
2013-03-27 22:22:00,42.0,18.0,-100.00,SSW,205,6.0,9.0,37,-99.99,,,0.00,,2013-03-28 04:22:00,
2013-03-27 22:32:00,42.0,18.0,-100.00,SSW,205,6.0,9.0,37,-99.99,,,0.00,,2013-03-28 04:32:00,
2013-03-27 22:42:00,42.0,18.0,-100.00,SSW,205,6.0,9.0,37,-99.99,,,0.00,,2013-03-28 04:42:00,
2013-03-27 22:52:00,41.0,18.0,-100.00,SSW,200,4.0,7.0,39,-99.99,,,0.00,,2013-03-28 04:52:00,
2013-03-27 23:02:00,41.0,18.0,-100.00,SSW,200,4.0,7.0,39,-99.99,,,0.00,,2013-03-28 05:02:00,
2013-03-27 23:12:00,42.0,18.0,-100.00,South,185,5.0,8.0,38,-99.99,,,0.00,,2013-03-28 05:12:00,
2013-03-27 23:22:00,42.0,18.0,-100.00,South,185,5.0,8.0,38,-99.99,,,0.00,,2013-03-28 05:22:00,
2013-03-27 23:32:00,42.0,18.0,-100.00,South,185,5.0,8.0,38,-99.99,,,0.00,,2013-03-28 05:32:00,
2013-03-27 23:42:00,42.0,18.0,-100.00,South,185,5.0,8.0,38,-99.99,,,0.00,,2013-03-28 05:42:00,
2013-03-27 23:52:00,42.0,18.0,-100.00,SSW,195,4.0,8.0,38,-99.99,,,0.00,,2013-03-28 05:52:00,